Hilton, New York
Current Conditions -  °F | °C
As of 4:28 PM on Tuesday 21 Oct 2014 (Local Time) from KROC Reporting Station
Light Rain Light Rain  
Wind Chill: 53°   Ceiling: 800
Heat Index: 53°   Visibility: 5mi
Dew Point: 51°   Wind: 10mph
Humidity: 93%   Direction: 40°NE
Pressure: 29.9"   Gusts: NA
Location:  43.29°N, 77.8°W
Report Text: KROC 212028Z 04009KT 5SM -RA BR BKN008 BKN018 OVC035 12/11 A2990 RMK AO2 RAB17 P0000 T01170106
Loading
Personal Weather Stations






























Interactive Weather Map
Tropical Storm Tracking
New forecast layout! Learn more

10-Day Weather Forecast

Advertisements
Track Severe Weather on mobile